Augusta, GA

10:23 AM EDT on August 02, 2015 (GMT -0400)
Martintown III | | Change Station
CLOSE
Current Station
Personal Weather Station
Location: North Augusta, SC
Elevation: 315 ft
Nearby Weather Stations

Elev 315 ft 33.52 °N, 81.97 °W | Updated 3 minutes ago

Fog
Fog
83.1 °F
Feels Like 83 °F
N
3.0
Wind Variable Wind from North
Gusts 5.0 mph

Today
High -- | Low -- °F
--% Chance of Precip.
Yesterday
High -- | Low -- °F
Precip. -- in
6:40 AM 8:26 PM
Waning Gibbous, 93% visible
Pressure 29.96 in
Visibility 4.0 miles
Clouds Overcast 1000 ft
Heat Index 83 °F
Dew Point 58 °F
Humidity 43%
Rainfall 0.00 in
Snow Depth Not available.
UV 2 out of 12
Pollen 5.20 out of 12
Air Quality Not available.
Flu Activity Not available.
SPECI KDNL 021409Z AUTO 00000KT 4SM HZ OVC010 27/23 A2996 RMK AO2 CIG 008V013 T02670233

More Conditions Fewer Conditions

Pressure 29.96 in
Visibility 4.0 miles
Clouds Overcast 1000 ft
Heat Index 83 °F
Dew Point 58 °F
Humidity 43%
Rainfall 0.00 in
Snow Depth Not available.
UV 2 out of 12
Pollen 5.20 out of 12
Air Quality Not available.
Flu Activity Not available.
SPECI KDNL 021409Z AUTO 00000KT 4SM HZ OVC010 27/23 A2996 RMK AO2 CIG 008V013 T02670233

More Conditions Fewer Conditions

10-Day Weather Forecast

×

Almanac

Astronomy

Aug. 02, 2015 Rise Set
Actual Time
Civil Twilight
Nautical Twilight
Astronomical Twilight
Moon
Length of Visible Light
Length of Day
Tomorrow will be .
, % of the Moon is Illuminated

Today's Extremes

State Highs State Lows

Community

WunderPhotos

Upload Photos

1,843,257 photos uploaded!

WunderBlogs® & News

Nearby

Air Quality

  Air Quality AQ Index Pollutant
Not available.

Snow Depth

Station Depth Elevation

Earthquake Activity

City Distance Mag. Time & Date
Minimum magnitude displayed is 2.5.

Coastal Water Temperatures

Place Temperature

Stations

Nearby Weather Stations

Station Location Temp. Windchill Dew Point Humidity Wind Precip. Elev Updated Type